Aeroporto :
LOGIN :

Iscrizione | Disclaimer

   EN    FR    IT 

 










Sommario :    VFR   VFR Marginale   IFR   IFR Intensivo   IFR Molto Intensivo
Visibilità : 
Base nubi : 
>= 8 km
>= 3000ft
5 / 8 km
1000 / 3000 ft
1500m / 5 km
500 / 1000 ft
800 / 1500m
200 / 500 ft
< 800m
< 200 ft
Simboli :   Temporali  Nebbia  Neve Forte  Precipitazioni Forti  Vento > 20 kt
SIGMETs :   Varie  Temporali  Ghiacco  Turbolenza  Onda orograficha  Ceneri Vulcaniche






- Altitudine del aeroporto : 72 ft
- Codice IATA : UDE


EHVK - Volkel Airbase

ULTIMO METAR :
  • 232055Z AUTO 34004KT 6000 DZ BKN018 03/02 Q0993 WHT

METARs OBSOLETI :
  • 232025Z AUTO VRB02KT 5000 BR FEW048 BKN071 02/02 Q0993 WHT
  • 231955Z AUTO 02003KT 8000 -DZ FEW048 BKN062 BKN071 03/02 Q0993 BLU
  • 231925Z AUTO 04003KT 6000 BR SCT018 BKN023 OVC031 02/02 Q0993 WHT
  • 231855Z AUTO 04002KT 4700 BR BKN021 OVC069 02/02 Q0993 GRN
  • 231825Z AUTO VRB02KT 6000 BR BKN021 OVC091 02/02 Q0993 WHT
  • 231755Z AUTO 08002KT 7000 BR OVC043 02/01 Q0993 WHT

Previsioni scadute.



MetMap, La meteo Aeronautica in un colpo d'occhio ! - Copyright ORBIFLY Dicembre 2007 - Disclaimer

ORBIFLY MET'MAP TEAM :

Programmazione e sviluppo : Alexandra Zaïnal
Concezione : Baudouin d'Aumeries
Aiuto per la programmazione : Marc-Olivier Méhu
Supporto tecnico e logistico : Manuel Goepfert
Aiuto per la traduzione : Arnaldo La Scala

Contatto : metmap@orbifly.com




FONTI E CREDITI :

   NOAA